Time;durP1;ratioP1;P1;durP2;ratioP2;P2;SDS_P1;SDS_P2;PMS_P1;PMS_P2;Temp;Humidity;BMP_temperature;BMP_pressure;BME280_temperature;BME280_humidity;BME280_pressure;Samples;Min_cycle;Max_cycle;Signal;HPM_P1;HPM_P2
2021/10/16 00:02:24;;;;;;;4.97;1.50;;;;;;;8.74;100.00;101329.28;4976682;28;20212;-72
2021/10/16 00:04:52;;;;;;;4.37;1.60;;;;;;;8.71;100.00;101324.34;5013460;28;20711;-74
2021/10/16 00:07:20;;;;;;;5.30;1.53;;;;;;;8.51;100.00;101329.38;4990067;28;20737;-73
2021/10/16 00:09:47;;;;;;;9.20;1.80;;;;;;;8.55;100.00;101331.38;4978712;28;20196;-73
2021/10/16 00:12:14;;;;;;;6.30;1.83;;;;;;;8.51;100.00;101334.78;5030482;28;20228;-73
2021/10/16 00:14:44;;;;;;;5.97;2.13;;;;;;;8.44;100.00;101334.09;5038286;28;20747;-73
2021/10/16 00:17:12;;;;;;;6.97;2.37;;;;;;;8.47;100.00;101336.34;4988952;28;20744;-74
2021/10/16 00:19:41;;;;;;;6.93;2.30;;;;;;;8.48;100.00;101335.28;4987611;28;20608;-74
2021/10/16 00:22:06;;;;;;;7.20;2.10;;;;;;;8.39;100.00;101325.91;5024124;28;20238;-73
2021/10/16 00:24:32;;;;;;;9.27;2.20;;;;;;;8.41;100.00;101318.38;5027413;28;20268;-73
2021/10/16 00:27:00;;;;;;;9.60;1.90;;;;;;;8.40;100.00;101322.13;4987705;28;20972;-73
2021/10/16 00:29:30;;;;;;;8.07;2.10;;;;;;;8.35;100.00;101323.91;4988568;28;20177;-73
2021/10/16 00:31:56;;;;;;;6.03;1.73;;;;;;;8.52;100.00;101318.31;5015098;28;20694;-74
2021/10/16 00:34:23;;;;;;;5.47;1.90;;;;;;;8.44;100.00;101323.28;4968845;28;20523;-74
2021/10/16 00:36:53;;;;;;;10.40;2.30;;;;;;;8.42;100.00;101324.59;5009521;28;20220;-74
2021/10/16 00:39:19;;;;;;;9.80;2.00;;;;;;;8.40;100.00;101322.13;5000890;28;20255;-73
2021/10/16 00:41:46;;;;;;;5.50;1.90;;;;;;;8.43;100.00;101313.53;5018191;28;20705;-73
2021/10/16 00:44:20;;;;;;;7.00;1.90;;;;;;;8.40;100.00;101315.91;4997181;28;20181;-73
2021/10/16 00:46:48;;;;;;;6.73;2.20;;;;;;;8.36;100.00;101315.56;5026730;28;20227;-74
2021/10/16 00:49:16;;;;;;;6.53;2.00;;;;;;;8.42;100.00;101325.41;5033626;28;20259;-73
2021/10/16 00:51:41;;;;;;;5.27;1.97;;;;;;;8.35;100.00;101335.59;4984166;28;20217;-73
2021/10/16 00:54:08;;;;;;;8.27;2.03;;;;;;;8.43;100.00;101329.78;4993989;28;20216;-73
2021/10/16 00:56:41;;;;;;;5.63;2.30;;;;;;;8.42;100.00;101330.81;4998989;28;20713;-73
2021/10/16 00:59:07;;;;;;;6.33;2.50;;;;;;;8.26;100.00;101342.44;5032841;28;20216;-73
2021/10/16 01:01:33;;;;;;;8.50;2.13;;;;;;;8.26;100.00;101342.44;4984722;28;20228;-73
2021/10/16 01:03:59;;;;;;;8.73;2.60;;;;;;;8.55;100.00;101353.03;4996642;28;20192;-73
2021/10/16 01:06:26;;;;;;;7.40;2.60;;;;;;;8.54;100.00;101350.56;4988821;28;20689;-73
2021/10/16 01:08:52;;;;;;;7.93;2.50;;;;;;;8.41;100.00;101345.44;5015946;28;20192;-73
2021/10/16 01:11:20;;;;;;;7.93;2.63;;;;;;;8.47;100.00;101347.16;4989329;28;20217;-73
2021/10/16 01:13:48;;;;;;;8.67;2.37;;;;;;;8.53;100.00;101343.50;4977277;28;20256;-73
2021/10/16 01:16:14;;;;;;;9.93;3.00;;;;;;;8.61;100.00;101340.41;5003757;28;20212;-74
2021/10/16 01:18:40;;;;;;;9.23;2.43;;;;;;;8.58;100.00;101346.31;5015691;28;20204;-73
2021/10/16 01:21:08;;;;;;;5.73;2.37;;;;;;;8.45;100.00;101346.59;5011805;28;20221;-74
2021/10/16 01:23:38;;;;;;;11.07;2.33;;;;;;;8.56;100.00;101343.81;4981130;28;20280;-73
2021/10/16 01:26:06;;;;;;;8.87;2.33;;;;;;;8.52;100.00;101344.56;4982561;28;20286;-74
2021/10/16 01:28:34;;;;;;;9.27;2.13;;;;;;;8.47;100.00;101347.16;4999605;28;20180;-72
2021/10/16 01:31:00;;;;;;;8.63;2.30;;;;;;;8.53;100.00;101343.50;5004926;28;20901;-73
2021/10/16 01:33:29;;;;;;;10.57;2.20;;;;;;;8.52;100.00;101341.88;4994902;28;20184;-73
2021/10/16 01:36:01;;;;;;;6.80;2.00;;;;;;;8.52;100.00;101344.56;4997862;28;20672;-75
2021/10/16 01:38:30;;;;;;;8.47;2.53;;;;;;;8.51;100.00;101338.31;4999029;28;20211;-73
2021/10/16 01:40:59;;;;;;;11.47;2.57;;;;;;;8.38;100.00;101340.50;4976766;28;20229;-73
2021/10/16 01:43:26;;;;;;;7.97;2.00;;;;;;;8.33;100.00;101344.97;4960385;28;20189;-73
2021/10/16 01:45:55;;;;;;;6.63;1.93;;;;;;;8.38;100.00;101345.91;4976138;28;20224;-72
2021/10/16 01:48:23;;;;;;;8.60;2.33;;;;;;;8.34;100.00;101344.75;5014208;28;20247;-73
2021/10/16 01:50:52;;;;;;;7.70;2.00;;;;;;;8.31;100.00;101345.22;4998624;28;20263;-73
2021/10/16 01:53:30;;;;;;;10.27;2.47;;;;;;;8.16;100.00;101358.44;4983758;28;20200;-73
2021/10/16 01:56:02;;;;;;;6.47;2.03;;;;;;;8.29;100.00;101352.75;4995942;28;20245;-74
2021/10/16 01:58:33;;;;;;;8.23;2.40;;;;;;;8.29;100.00;101351.94;5030116;28;20601;-73
2021/10/16 02:01:09;;;;;;;7.37;2.20;;;;;;;8.25;100.00;101348.91;5003913;28;20231;-73
2021/10/16 02:03:36;;;;;;;8.77;2.00;;;;;;;8.29;100.00;101352.75;4999344;28;20189;-73
2021/10/16 02:06:09;;;;;;;7.73;2.07;;;;;;;8.42;100.00;101347.06;4982415;28;20221;-73
2021/10/16 02:08:43;;;;;;;10.00;2.37;;;;;;;8.57;100.00;101350.06;4999410;28;20184;-73
2021/10/16 02:11:11;;;;;;;9.83;2.40;;;;;;;8.42;100.00;101344.34;5014556;28;20227;-73
2021/10/16 02:13:49;;;;;;;8.10;2.30;;;;;;;8.50;100.00;101338.56;4977981;28;20713;-73
2021/10/16 02:16:16;;;;;;;6.87;2.50;;;;;;;8.47;100.00;101349.88;4975694;28;20225;-73
2021/10/16 02:18:56;;;;;;;6.97;2.10;;;;;;;8.62;100.00;101352.88;5014240;28;20298;-73
2021/10/16 02:21:22;;;;;;;8.10;2.13;;;;;;;8.49;100.00;101348.56;5014171;28;20244;-72
2021/10/16 02:23:49;;;;;;;7.97;2.10;;;;;;;8.61;100.00;101351.25;4981186;28;20193;-74
2021/10/16 02:26:16;;;;;;;7.97;2.53;;;;;;;8.58;100.00;101362.53;4978944;28;20227;-74
2021/10/16 02:28:52;;;;;;;8.03;2.40;;;;;;;8.54;100.00;101362.19;5011595;28;20172;-73
2021/10/16 02:31:25;;;;;;;6.17;2.40;;;;;;;8.54;100.00;101364.09;5017734;28;20295;-73
2021/10/16 02:33:57;;;;;;;7.10;2.73;;;;;;;8.69;100.00;101365.19;4979680;28;20239;-72
2021/10/16 02:36:28;;;;;;;12.03;2.53;;;;;;;8.63;100.00;101354.53;4994916;28;20225;-72
2021/10/16 02:38:56;;;;;;;9.70;2.40;;;;;;;8.74;100.00;101356.34;4997570;28;20226;-72
2021/10/16 02:41:24;;;;;;;6.47;2.40;;;;;;;8.79;100.00;101361.84;5014059;28;20239;-72
2021/10/16 02:43:53;;;;;;;6.80;2.33;;;;;;;8.71;100.00;101364.97;5015559;28;20191;-73
2021/10/16 02:46:25;;;;;;;8.37;2.83;;;;;;;8.76;100.00;101360.47;4994931;28;20228;-72
2021/10/16 02:48:51;;;;;;;7.67;2.47;;;;;;;8.60;100.00;101357.72;5009111;28;20187;-73
2021/10/16 02:51:16;;;;;;;9.47;2.60;;;;;;;8.62;100.00;101369.94;4997438;28;20228;-73
2021/10/16 02:53:44;;;;;;;6.87;2.80;;;;;;;8.67;100.00;101374.63;4981660;28;20674;-75
2021/10/16 02:56:12;;;;;;;8.27;2.63;;;;;;;8.66;100.00;101364.84;4975118;28;20304;-73
2021/10/16 02:58:39;;;;;;;9.07;2.63;;;;;;;8.75;100.00;101376.94;4997643;28;20299;-72
2021/10/16 03:01:04;;;;;;;9.83;2.77;;;;;;;8.75;100.00;101375.03;5018703;28;20236;-73
2021/10/16 03:03:36;;;;;;;8.20;2.50;;;;;;;8.77;100.00;101369.41;4994464;28;20180;-73
2021/10/16 03:06:05;;;;;;;10.13;2.90;;;;;;;8.78;100.00;101369.16;5011455;28;20304;-73
2021/10/16 03:08:33;;;;;;;11.10;3.00;;;;;;;8.70;100.00;101371.44;4998164;28;20172;-73
2021/10/16 03:11:03;;;;;;;11.27;3.00;;;;;;;8.68;100.00;101374.41;5013782;28;20228;-73
2021/10/16 03:13:35;;;;;;;6.83;2.70;;;;;;;8.79;100.00;101376.22;5021308;28;20184;-73
2021/10/16 03:16:04;;;;;;;8.67;2.80;;;;;;;8.85;100.00;101376.06;4962635;28;20225;-73
2021/10/16 03:18:32;;;;;;;5.77;2.53;;;;;;;8.69;100.00;101376.03;5001239;28;20200;-73
2021/10/16 03:21:02;;;;;;;10.73;3.23;;;;;;;8.71;100.00;101373.91;5029734;28;20286;-72
2021/10/16 03:23:28;;;;;;;7.77;2.80;;;;;;;8.74;100.00;101367.19;5023362;28;20193;-72
2021/10/16 03:25:56;;;;;;;8.57;2.73;;;;;;;8.82;100.00;101361.38;4977530;28;20224;-73
2021/10/16 03:28:24;;;;;;;7.60;2.77;;;;;;;8.76;100.00;101370.47;4999951;28;20173;-73
2021/10/16 03:30:52;;;;;;;7.83;3.83;;;;;;;8.59;100.00;101366.88;4987137;28;20229;-73
2021/10/16 03:33:20;;;;;;;6.83;3.10;;;;;;;8.62;100.00;101366.41;4954248;28;20538;-73
2021/10/16 03:35:45;;;;;;;7.87;2.90;;;;;;;8.66;100.00;101367.56;4961471;28;20252;-73
2021/10/16 03:38:14;;;;;;;11.03;3.00;;;;;;;8.53;100.00;101363.28;4996044;28;20276;-72
2021/10/16 03:40:42;;;;;;;8.90;2.90;;;;;;;8.56;100.00;101364.69;4997250;28;20367;-73
2021/10/16 03:43:07;;;;;;;8.77;3.10;;;;;;;8.56;100.00;101364.69;5012354;28;20210;-73
2021/10/16 03:45:35;;;;;;;7.97;3.00;;;;;;;8.44;100.00;101369.28;4993116;28;20799;-72
2021/10/16 03:48:03;;;;;;;5.97;2.80;;;;;;;8.50;100.00;101365.66;4977893;28;20192;-73
2021/10/16 03:50:32;;;;;;;9.47;2.80;;;;;;;8.49;100.00;101366.69;5012457;28;20281;-73
2021/10/16 03:53:01;;;;;;;8.53;3.27;;;;;;;8.46;100.00;101368.00;5014362;28;20275;-73
2021/10/16 03:55:29;;;;;;;9.13;3.27;;;;;;;8.46;100.00;101369.88;5010635;28;20228;-73
2021/10/16 03:57:55;;;;;;;7.97;3.40;;;;;;;8.46;100.00;101375.28;4980216;28;20185;-73
2021/10/16 04:00:22;;;;;;;7.97;3.30;;;;;;;8.45;100.00;101376.38;5008609;28;20204;-73
2021/10/16 04:03:00;;;;;;;6.90;2.87;;;;;;;8.38;100.00;101374.88;4983276;28;20193;-71
2021/10/16 04:05:28;;;;;;;11.07;3.10;;;;;;;8.40;100.00;101372.75;5021575;28;20224;-74
2021/10/16 04:07:53;;;;;;;10.53;3.30;;;;;;;8.50;100.00;101365.66;4998038;28;20549;-74
2021/10/16 04:10:19;;;;;;;8.03;3.30;;;;;;;8.56;100.00;101375.50;4983688;28;20200;-73
2021/10/16 04:12:45;;;;;;;9.60;3.30;;;;;;;8.58;100.00;101365.25;5017397;28;20184;-74
2021/10/16 04:15:11;;;;;;;10.00;3.43;;;;;;;8.75;100.00;101366.09;5003154;28;20181;-74
2021/10/16 04:17:37;;;;;;;9.13;3.80;;;;;;;8.64;100.00;101366.97;4997727;28;20673;-74
2021/10/16 04:20:06;;;;;;;11.13;3.63;;;;;;;8.70;100.00;101360.59;4993638;28;20204;-74
2021/10/16 04:22:39;;;;;;;8.27;3.30;;;;;;;8.78;100.00;101357.50;5017909;28;20216;-74
2021/10/16 04:25:07;;;;;;;5.30;3.40;;;;;;;8.66;100.00;101354.88;5004476;28;20198;-74
2021/10/16 04:27:38;;;;;;;9.60;3.30;;;;;;;8.58;100.00;101357.13;4998069;28;20185;-73
2021/10/16 04:30:15;;;;;;;6.67;3.27;;;;;;;8.49;100.00;101361.28;5005711;28;20200;-74
2021/10/16 04:32:41;;;;;;;11.37;3.20;;;;;;;8.69;100.00;101356.25;4980902;28;20177;-73
2021/10/16 04:35:07;;;;;;;6.63;3.07;;;;;;;8.71;100.00;101357.66;4980473;28;20593;-74
2021/10/16 04:37:37;;;;;;;8.47;3.53;;;;;;;8.60;100.00;101346.88;5015995;28;20181;-74
2021/10/16 04:40:12;;;;;;;8.23;3.57;;;;;;;8.54;100.00;101361.38;5005922;28;20213;-76
2021/10/16 04:42:40;;;;;;;8.47;4.10;;;;;;;8.59;100.00;101358.75;4998055;28;20224;-73
2021/10/16 04:45:07;;;;;;;5.87;3.80;;;;;;;8.59;100.00;101358.75;4996751;28;20190;-75
2021/10/16 04:47:35;;;;;;;7.60;3.40;;;;;;;8.68;100.00;101358.16;4996893;28;20165;-73
2021/10/16 04:50:01;;;;;;;7.07;4.10;;;;;;;8.64;100.00;101362.38;4965644;28;20181;-74
2021/10/16 04:52:31;;;;;;;11.87;4.73;;;;;;;8.77;100.00;101361.28;5012590;28;20236;-73
2021/10/16 04:54:57;;;;;;;10.57;4.37;;;;;;;8.60;100.00;101358.53;4984477;28;20271;-73
2021/10/16 04:57:25;;;;;;;9.27;4.20;;;;;;;8.66;100.00;101367.56;4960609;28;20218;-73
2021/10/16 04:59:56;;;;;;;12.87;5.80;;;;;;;8.72;100.00;101363.88;4992878;28;20296;-74
2021/10/16 05:02:24;;;;;;;10.50;5.27;;;;;;;8.68;100.00;101358.16;4980502;28;20275;-75
2021/10/16 05:04:52;;;;;;;9.10;4.33;;;;;;;8.69;100.00;101364.38;4989764;28;20185;-75
2021/10/16 05:07:17;;;;;;;8.40;4.40;;;;;;;8.63;100.00;101368.06;4978983;28;20212;-75
2021/10/16 05:09:46;;;;;;;8.63;3.90;;;;;;;8.61;100.00;101362.88;4979803;28;20200;-74
2021/10/16 05:12:14;;;;;;;10.93;4.23;;;;;;;8.56;100.00;101372.78;4982011;28;20232;-73
2021/10/16 05:14:45;;;;;;;9.27;3.97;;;;;;;8.61;100.00;101367.50;4972971;28;20174;-73
2021/10/16 05:17:12;;;;;;;10.00;4.07;;;;;;;8.75;100.00;101368.81;4997067;28;20217;-73
2021/10/16 05:19:40;;;;;;;9.83;4.27;;;;;;;8.87;100.00;101378.53;4994884;28;20221;-78
2021/10/16 05:22:08;;;;;;;10.57;4.23;;;;;;;8.82;100.00;101371.13;5012042;28;20221;-74
2021/10/16 05:24:37;;;;;;;11.73;5.10;;;;;;;8.72;100.00;101363.88;4981479;28;20185;-75
2021/10/16 05:27:06;;;;;;;10.43;4.40;;;;;;;8.76;100.00;101370.47;4991248;28;20216;-76
2021/10/16 05:29:36;;;;;;;8.77;4.33;;;;;;;8.59;100.00;101370.44;4995943;28;20178;-78
2021/10/16 05:32:02;;;;;;;9.90;4.90;;;;;;;8.66;100.00;101364.84;4986543;28;20316;-79
2021/10/16 05:34:27;;;;;;;9.43;5.03;;;;;;;8.68;100.00;101366.28;5011670;28;20220;-78
2021/10/16 05:36:53;;;;;;;9.10;4.80;;;;;;;8.51;100.00;101364.56;4974516;28;20216;-78
2021/10/16 05:39:22;;;;;;;10.80;4.47;;;;;;;8.61;100.00;101367.50;4997542;28;20217;-76
2021/10/16 05:41:51;;;;;;;8.07;3.87;;;;;;;8.53;100.00;101365.16;5022492;28;20221;-77
2021/10/16 05:44:17;;;;;;;10.73;4.40;;;;;;;8.52;100.00;101374.34;5007035;28;20217;-77
2021/10/16 05:46:45;;;;;;;9.77;4.20;;;;;;;8.44;100.00;101380.97;4991068;28;20217;-79
2021/10/16 05:49:19;;;;;;;9.50;4.10;;;;;;;8.43;100.00;101368.47;4994553;28;20193;-79
2021/10/16 05:51:50;;;;;;;7.83;4.20;;;;;;;8.46;100.00;101367.16;5015830;28;20312;-78
2021/10/16 05:54:16;;;;;;;9.30;3.87;;;;;;;8.35;100.00;101364.50;5017943;28;20260;-79
2021/10/16 05:56:44;;;;;;;10.43;4.23;;;;;;;8.42;100.00;101381.44;4999112;28;20592;-79
2021/10/16 05:59:10;;;;;;;8.23;4.53;;;;;;;8.38;100.00;101372.97;5015339;28;20223;-77
2021/10/16 06:01:36;;;;;;;10.87;4.70;;;;;;;8.34;100.00;101371.81;4991679;28;20305;-77
2021/10/16 06:04:05;;;;;;;9.03;4.53;;;;;;;8.45;100.00;101387.19;4978789;28;20200;-79
2021/10/16 06:06:31;;;;;;;8.03;4.33;;;;;;;8.46;100.00;101391.53;5026625;28;20802;-78
2021/10/16 06:08:57;;;;;;;8.93;4.87;;;;;;;8.38;100.00;101389.22;4980198;28;20381;-78
2021/10/16 06:11:27;;;;;;;7.13;4.17;;;;;;;8.54;100.00;101393.88;5020712;28;20226;-80
2021/10/16 06:13:53;;;;;;;11.80;4.80;;;;;;;8.45;100.00;101389.91;5007275;28;20189;-78
2021/10/16 06:16:21;;;;;;;8.17;4.03;;;;;;;8.53;100.00;101398.47;5007841;28;20230;-79
2021/10/16 06:18:47;;;;;;;10.20;4.77;;;;;;;8.54;100.00;101383.88;5021039;28;20204;-78
2021/10/16 06:21:13;;;;;;;10.37;5.30;;;;;;;8.54;100.00;101396.59;5016535;28;20231;-78
2021/10/16 06:23:43;;;;;;;9.87;4.57;;;;;;;8.48;100.00;101405.69;5019078;28;20191;-79
2021/10/16 06:26:13;;;;;;;9.43;5.10;;;;;;;8.50;100.00;101400.84;5008018;28;20283;-78
2021/10/16 06:28:39;;;;;;;11.07;5.20;;;;;;;8.66;100.00;101409.03;5005285;28;20191;-77
2021/10/16 06:31:05;;;;;;;11.27;4.97;;;;;;;8.56;100.00;101408.00;5016839;28;20319;-78
2021/10/16 06:33:32;;;;;;;8.43;5.07;;;;;;;8.51;100.00;101411.41;4971990;28;20196;-78
2021/10/16 06:36:00;;;;;;;11.30;5.23;;;;;;;8.60;100.00;101411.84;4987705;28;20233;-79
2021/10/16 06:38:39;;;;;;;10.27;5.07;;;;;;;8.59;100.00;101418.31;5023877;28;20688;-78
2021/10/16 06:41:08;;;;;;;11.17;5.13;;;;;;;8.79;100.00;101424.13;5018037;28;20240;-78
2021/10/16 06:44:03;;;;;;;7.37;4.97;;;;;;;8.75;100.00;101420.28;4992342;28;20276;-79
2021/10/16 06:46:39;;;;;;;7.87;5.13;;;;;;;8.78;100.00;101420.63;5002856;28;20212;-78
2021/10/16 06:49:22;;;;;;;9.33;4.97;;;;;;;8.92;100.00;101420.09;5022526;28;20180;-78
2021/10/16 06:51:49;;;;;;;7.60;5.07;;;;;;;8.93;100.00;101427.13;4977552;28;20225;-78
2021/10/16 06:54:18;;;;;;;8.90;4.87;;;;;;;9.03;100.00;101424.63;4997971;28;20182;-78
2021/10/16 06:56:45;;;;;;;10.30;5.20;;;;;;;8.89;100.00;101427.88;4989431;28;20271;-79
2021/10/16 06:59:11;;;;;;;11.10;5.40;;;;;;;8.93;100.00;101437.97;5037703;28;20240;-79
2021/10/16 07:01:38;;;;;;;9.80;5.43;;;;;;;8.81;100.00;101430.97;5017690;28;20306;-78
2021/10/16 07:04:14;;;;;;;13.03;5.60;;;;;;;8.85;100.00;101441.06;4988695;28;20205;-79
2021/10/16 07:06:40;;;;;;;10.53;5.73;;;;;;;8.87;100.00;101441.66;4987855;28;20216;-79
2021/10/16 07:09:11;;;;;;;8.83;5.33;;;;;;;8.91;100.00;101440.09;5006125;28;20207;-78
2021/10/16 07:11:39;;;;;;;10.63;5.50;;;;;;;9.18;100.00;101440.34;5003041;28;20617;-78
2021/10/16 07:14:04;;;;;;;11.73;6.10;;;;;;;9.20;100.00;101452.56;4998832;28;20217;-78
2021/10/16 07:16:35;;;;;;;7.90;5.53;;;;;;;9.36;100.00;101449.09;4982910;28;20213;-78
2021/10/16 07:19:03;;;;;;;8.67;5.50;;;;;;;9.13;100.00;101445.66;4981876;28;20599;-78
2021/10/16 07:21:29;;;;;;;8.10;5.30;;;;;;;9.32;100.00;101458.75;4966906;28;20316;-77
2021/10/16 07:23:56;;;;;;;7.57;5.00;;;;;;;9.31;100.00;101462.53;4997785;28;20184;-78
2021/10/16 07:26:24;;;;;;;9.57;5.43;;;;;;;9.16;100.00;101462.28;5015965;28;20216;-78
2021/10/16 07:28:54;;;;;;;10.20;5.10;;;;;;;9.07;100.00;101482.69;4977891;28;20249;-78
2021/10/16 07:31:23;;;;;;;9.03;4.70;;;;;;;9.24;100.00;101476.22;4960226;28;20236;-77
2021/10/16 07:33:52;;;;;;;8.40;5.40;;;;;;;9.13;100.00;101470.88;5027230;28;20193;-78
2021/10/16 07:36:20;;;;;;;7.87;5.20;;;;;;;9.26;100.00;101476.00;4996445;28;20283;-78
2021/10/16 07:38:45;;;;;;;10.43;5.10;;;;;;;9.20;100.00;101472.38;5010710;28;20196;-78
2021/10/16 07:41:13;;;;;;;10.07;6.30;;;;;;;9.39;100.00;101472.97;5031615;28;20231;-78
2021/10/16 07:43:38;;;;;;;12.43;6.23;;;;;;;9.36;100.00;101476.19;4981399;28;20228;-78
2021/10/16 07:46:04;;;;;;;9.33;5.50;;;;;;;9.51;100.00;101473.75;4944919;28;20217;-78
2021/10/16 07:48:29;;;;;;;6.70;6.00;;;;;;;9.52;100.00;101480.78;4983750;28;20614;-77
2021/10/16 07:50:58;;;;;;;10.60;5.93;;;;;;;9.49;100.00;101471.28;5014555;28;20235;-79
2021/10/16 07:53:23;;;;;;;8.63;5.73;;;;;;;9.68;100.00;101470.78;5005622;28;20219;-79
2021/10/16 07:55:49;;;;;;;7.17;5.20;;;;;;;9.81;100.00;101470.44;4995753;28;20229;-78
2021/10/16 07:58:17;;;;;;;8.63;5.17;;;;;;;9.84;100.00;101480.81;4987669;28;20210;-78
2021/10/16 08:00:45;;;;;;;9.70;5.40;;;;;;;9.93;100.00;101471.22;4999808;28;20235;-78
2021/10/16 08:03:12;;;;;;;6.50;4.73;;;;;;;9.86;100.00;101478.66;5008602;28;20268;-78
2021/10/16 08:05:38;;;;;;;8.00;4.60;;;;;;;9.84;100.00;101485.41;5017500;28;20235;-78
2021/10/16 08:08:04;;;;;;;8.53;4.97;;;;;;;9.75;100.00;101481.47;5009471;28;20176;-79
2021/10/16 08:10:29;;;;;;;9.30;4.80;;;;;;;9.71;100.00;101486.56;5004228;28;20228;-78
2021/10/16 08:12:57;;;;;;;8.67;5.53;;;;;;;9.83;100.00;101494.63;5014898;28;20189;-78
2021/10/16 08:15:23;;;;;;;11.07;5.37;;;;;;;9.85;100.00;101492.47;4966118;28;20689;-78
2021/10/16 08:17:51;;;;;;;8.13;4.70;;;;;;;9.93;100.00;101490.22;4987377;28;20189;-79
2021/10/16 08:20:16;;;;;;;8.83;4.80;;;;;;;9.81;100.00;101494.84;5021683;28;20231;-78
2021/10/16 08:22:45;;;;;;;7.63;5.07;;;;;;;9.95;100.00;101493.50;5037721;28;20315;-78
2021/10/16 08:25:11;;;;;;;8.20;5.37;;;;;;;9.95;100.00;101492.69;5001766;28;20185;-78
2021/10/16 08:27:38;;;;;;;7.67;4.80;;;;;;;10.00;100.00;101485.44;4970906;28;20189;-79
2021/10/16 08:30:05;;;;;;;11.30;5.50;;;;;;;10.10;100.00;101488.31;5021962;28;20185;-79
2021/10/16 08:32:32;;;;;;;9.10;4.73;;;;;;;9.97;100.00;101496.78;5002040;28;20247;-78
2021/10/16 08:34:58;;;;;;;7.40;5.10;;;;;;;10.04;100.00;101497.44;5000501;28;20197;-78
2021/10/16 08:37:26;;;;;;;5.63;4.50;;;;;;;10.17;100.00;101486.25;4999849;28;20217;-77
2021/10/16 08:39:54;;;;;;;9.03;4.83;;;;;;;10.24;100.00;101497.75;4980972;28;20260;-77
2021/10/16 08:42:21;;;;;;;10.07;5.00;;;;;;;10.36;100.00;101495.75;5016038;28;20582;-78
2021/10/16 08:44:47;;;;;;;8.97;4.83;;;;;;;10.15;100.00;101493.81;5005139;28;20292;-78
2021/10/16 08:47:12;;;;;;;6.63;4.53;;;;;;;10.23;100.00;101485.25;4984402;28;20244;-77
2021/10/16 08:49:45;;;;;;;7.33;4.43;;;;;;;10.27;100.00;101494.53;4981718;28;20184;-77
2021/10/16 08:52:15;;;;;;;9.27;4.93;;;;;;;10.39;100.00;101496.88;5004733;28;20227;-78
2021/10/16 08:54:42;;;;;;;9.73;4.67;;;;;;;10.47;100.00;101488.28;5010086;28;20192;-77
2021/10/16 08:57:10;;;;;;;6.80;4.83;;;;;;;10.48;100.00;101487.22;4986204;28;20237;-78
2021/10/16 08:59:36;;;;;;;8.27;4.73;;;;;;;10.58;100.00;101490.06;4997219;28;20216;-78
2021/10/16 09:02:03;;;;;;;7.73;4.67;;;;;;;10.51;100.00;101489.47;5004665;28;20224;-78
2021/10/16 09:04:29;;;;;;;7.97;4.77;;;;;;;10.59;100.00;101475.44;5027429;28;20195;-78
2021/10/16 09:06:54;;;;;;;7.73;4.87;;;;;;;10.49;100.00;101491.59;5001484;28;20216;-78
2021/10/16 09:09:28;;;;;;;7.33;4.43;;;;;;;10.66;100.00;101486.09;4994466;28;20180;-78
2021/10/16 09:11:57;;;;;;;6.43;4.90;;;;;;;10.77;100.00;101484.09;5007681;28;20228;-77
2021/10/16 09:14:31;;;;;;;6.40;4.97;;;;;;;10.74;100.00;101486.47;5016666;28;20177;-78
2021/10/16 09:17:01;;;;;;;8.43;5.03;;;;;;;10.91;100.00;101479.06;5004564;28;20275;-78
2021/10/16 09:19:33;;;;;;;8.10;4.53;;;;;;;10.91;100.00;101489.94;5027406;28;20203;-78
2021/10/16 09:22:03;;;;;;;7.90;4.50;;;;;;;10.86;100.00;101488.00;5023144;28;20713;-78
2021/10/16 09:24:38;;;;;;;6.50;4.77;;;;;;;10.96;100.00;101490.84;5033145;28;20185;-77
2021/10/16 09:27:05;;;;;;;7.43;4.63;;;;;;;11.19;100.00;101483.22;5019006;28;20728;-77
2021/10/16 09:29:35;;;;;;;8.50;4.57;;;;;;;10.97;100.00;101486.22;4998561;28;20184;-79
2021/10/16 09:32:05;;;;;;;6.73;4.43;;;;;;;11.10;100.00;101483.09;4965323;28;20240;-78
2021/10/16 09:34:33;;;;;;;7.63;4.27;;;;;;;11.23;100.00;101478.09;4998770;28;20191;-78
2021/10/16 09:37:06;;;;;;;8.83;4.47;;;;;;;11.29;100.00;101477.88;5024423;28;20228;-78
2021/10/16 09:39:35;;;;;;;7.67;4.30;;;;;;;11.54;100.00;101480.88;5034388;28;20212;-78
2021/10/16 09:42:03;;;;;;;5.30;4.47;;;;;;;11.59;100.00;101489.06;4985636;28;20307;-78
2021/10/16 09:44:31;;;;;;;8.77;4.07;;;;;;;11.54;100.00;101484.41;4975056;28;20322;-78
2021/10/16 09:47:18;;;;;;;7.57;4.57;;;;;;;11.69;100.00;101483.75;5025566;28;20240;-78
2021/10/16 09:49:57;;;;;;;6.83;4.20;;;;;;;11.33;100.00;101489.88;5019439;28;20215;-78
2021/10/16 09:52:41;;;;;;;7.43;3.97;;;;;;;11.49;100.00;101489.00;5003953;28;20228;-78
2021/10/16 09:55:12;;;;;;;7.37;4.23;;;;;;;11.48;100.00;101487.34;5024498;28;20185;-77
2021/10/16 09:57:40;;;;;;;6.17;4.50;;;;;;;11.58;100.00;101490.16;5036378;28;20647;-78
2021/10/16 10:00:06;;;;;;;7.83;4.33;;;;;;;11.61;100.00;101486.91;5010763;28;20241;-78
2021/10/16 10:02:39;;;;;;;8.97;4.87;;;;;;;11.83;100.00;101490.38;5017289;28;20355;-80
2021/10/16 10:05:06;;;;;;;6.47;4.67;;;;;;;11.92;100.00;101489.63;4992853;28;20210;-77
2021/10/16 10:07:32;;;;;;;5.23;3.60;;;;;;;11.84;100.00;101494.75;5038720;28;20264;-78
2021/10/16 10:09:58;;;;;;;6.30;3.80;;;;;;;11.74;100.00;101492.78;5031836;28;20197;-78
2021/10/16 10:12:26;;;;;;;6.67;3.80;;;;;;;11.67;100.00;101499.50;5017924;28;20229;-78
2021/10/16 10:14:52;;;;;;;6.43;3.50;;;;;;;11.80;100.00;101496.34;4987671;28;20184;-79
2021/10/16 10:17:33;;;;;;;8.43;3.73;;;;;;;11.50;100.00;101500.69;5038582;28;20232;-78
2021/10/16 10:20:06;;;;;;;5.40;3.13;;;;;;;11.67;100.00;101503.03;5017570;28;20200;-78
2021/10/16 10:22:34;;;;;;;7.97;3.20;;;;;;;11.73;100.00;101501.19;4986790;28;20229;-78
2021/10/16 10:24:59;;;;;;;6.50;3.30;;;;;;;11.70;100.00;101497.09;4983569;28;20181;-79
2021/10/16 10:27:27;;;;;;;7.73;3.17;;;;;;;11.87;100.00;101507.81;5022947;28;20272;-78
2021/10/16 10:29:56;;;;;;;6.70;3.60;;;;;;;11.94;100.00;101507.38;5020165;28;20186;-78
2021/10/16 10:32:22;;;;;;;7.60;3.17;;;;;;;11.81;100.00;101497.97;5017074;28;20238;-78
2021/10/16 10:35:03;;;;;;;8.10;3.80;;;;;;;12.01;100.00;101502.53;5003382;28;20626;-78
2021/10/16 10:37:44;;;;;;;7.87;3.00;;;;;;;11.94;100.00;101499.19;5018522;28;20282;-78
2021/10/16 10:40:17;;;;;;;7.80;3.40;;;;;;;12.17;100.00;101504.25;5016921;28;20212;-79
2021/10/16 10:42:44;;;;;;;6.50;3.40;;;;;;;12.35;100.00;101498.41;5021020;28;20196;-78
2021/10/16 10:45:28;;;;;;;7.87;3.00;;;;;;;12.21;100.00;101494.47;5005439;28;20232;-79
2021/10/16 10:48:11;;;;;;;6.30;3.33;;;;;;;12.30;100.00;101498.34;5006807;28;20188;-78
2021/10/16 10:50:49;;;;;;;7.53;3.40;;;;;;;12.23;100.00;101497.75;5003201;28;20606;-79
2021/10/16 10:53:25;;;;;;;6.37;2.87;;;;;;;12.32;100.00;101493.47;5021165;28;20750;-78
2021/10/16 10:55:51;;;;;;;8.40;3.37;;;;;;;12.52;100.00;101480.78;5009151;28;20216;-78
2021/10/16 10:58:22;;;;;;;4.37;2.47;;;;;;;12.60;100.00;101487.63;5039476;28;20180;-77
2021/10/16 11:00:51;;;;;;;6.33;2.50;;;;;;;12.26;100.00;101486.34;5014134;28;20225;-78
2021/10/16 11:03:30;;;;;;;9.30;3.00;;;;;;;11.92;100.00;101495.06;5017610;28;20673;-79
2021/10/16 11:06:11;;;;;;;6.03;2.70;;;;;;;12.18;100.00;101491.44;5017474;28;20224;-77
2021/10/16 11:08:37;;;;;;;6.87;2.80;;;;;;;12.40;100.00;101482.09;5035640;28;20186;-78
2021/10/16 11:11:03;;;;;;;4.77;2.67;;;;;;;12.38;100.00;101478.78;4991977;28;20217;-77
2021/10/16 11:13:31;;;;;;;6.67;2.60;;;;;;;12.49;100.00;101475.03;4978528;28;20180;-77
2021/10/16 11:15:58;;;;;;;5.73;2.37;;;;;;;12.04;100.00;101482.09;4999497;28;20216;-80
2021/10/16 11:18:24;;;;;;;6.77;2.57;;;;;;;12.31;100.00;101472.75;4999990;28;20189;-76
2021/10/16 11:20:51;;;;;;;4.83;2.20;;;;;;;12.50;100.00;101474.75;4996274;28;20231;-76
2021/10/16 11:23:26;;;;;;;7.90;2.90;;;;;;;12.57;100.00;101471.81;4978600;28;20185;-77
2021/10/16 11:26:02;;;;;;;6.70;2.53;;;;;;;12.33;100.00;101473.31;4982158;28;20216;-79
2021/10/16 11:28:31;;;;;;;5.60;2.83;;;;;;;12.44;100.00;101469.56;5004419;28;20185;-77
2021/10/16 11:30:59;;;;;;;5.20;2.20;;;;;;;12.49;100.00;101472.28;4997320;28;20228;-78